Terminal Aerodrome Forecast
Issued by NWS

Home | Current Version | Previous Version | Text Only | Print | Product List | Glossary On
Versions: 1 2 3 4 5 6 7 8 9 10 11 12 13 14 15 16 17 18 19 20 21 22 23 24 25 26 27 28 29 30 31 32 33 34 35 36 37 38 39 40 41 42 43 44 45 46 47 48 49 50
000
FTUS41 KBUF 182339
TAFJHW
TAF
KJHW 182339Z 1900/1924 VRB03KT P6SM SCT035
     FM190100 VRB03KT P6SM SCT250
     FM190600 VRB03KT 2SM BR SCT250
     FM190900 VRB03KT 1SM BR BKN003
     FM191300 VRB03KT P6SM BKN200
     FM191500 VRB03KT P6SM BKN030
     FM191700 34005KT P6SM VCSH BKN030=

USA.gov is the U.S. government's official web portal to all federal, state and local government web resources and services.